sensor_id;sensor_type;location;lat;lon;timestamp;pressure;altitude;pressure_sealevel;temperature;humidity
13478;BME280;12598;62.382;17.344;2023-07-31T00:00:21;100075.63;;;27.11;37.57
13478;BME280;12598;62.382;17.344;2023-07-31T00:01:23;100059.59;;;27.03;37.64
13478;BME280;12598;62.382;17.344;2023-07-31T00:02:25;100074.19;;;27.09;37.67
13478;BME280;12598;62.382;17.344;2023-07-31T00:03:27;100081.28;;;27.10;37.73
13478;BME280;12598;62.382;17.344;2023-07-31T00:04:29;100068.34;;;27.05;37.81
13478;BME280;12598;62.382;17.344;2023-07-31T00:05:31;100076.91;;;27.09;37.87
13478;BME280;12598;62.382;17.344;2023-07-31T00:06:33;100082.34;;;27.09;37.81
13478;BME280;12598;62.382;17.344;2023-07-31T00:07:35;100088.78;;;27.08;37.75
13478;BME280;12598;62.382;17.344;2023-07-31T00:08:37;100075.44;;;27.06;37.76
13478;BME280;12598;62.382;17.344;2023-07-31T00:09:38;100080.84;;;27.06;37.61
13478;BME280;12598;62.382;17.344;2023-07-31T00:10:40;100076.47;;;27.05;37.67
13478;BME280;12598;62.382;17.344;2023-07-31T00:11:42;100077.31;;;27.06;37.37
13478;BME280;12598;62.382;17.344;2023-07-31T00:12:45;100081.09;;;27.05;37.91
13478;BME280;12598;62.382;17.344;2023-07-31T00:13:46;100065.47;;;27.00;37.77
13478;BME280;12598;62.382;17.344;2023-07-31T00:14:49;100075.66;;;27.05;37.64
13478;BME280;12598;62.382;17.344;2023-07-31T00:15:51;100074.00;;;27.04;37.82
13478;BME280;12598;62.382;17.344;2023-07-31T00:16:53;100071.28;;;27.04;37.89
13478;BME280;12598;62.382;17.344;2023-07-31T00:17:54;100082.16;;;27.04;38.33
13478;BME280;12598;62.382;17.344;2023-07-31T00:18:56;100080.50;;;27.03;37.86
13478;BME280;12598;62.382;17.344;2023-07-31T00:19:58;100075.28;;;27.01;37.80
13478;BME280;12598;62.382;17.344;2023-07-31T00:21:00;100085.06;;;27.02;37.94
13478;BME280;12598;62.382;17.344;2023-07-31T00:22:02;100079.88;;;27.01;37.99
13478;BME280;12598;62.382;17.344;2023-07-31T00:23:04;100080.69;;;27.01;38.00
13478;BME280;12598;62.382;17.344;2023-07-31T00:24:06;100080.91;;;27.00;37.89
13478;BME280;12598;62.382;17.344;2023-07-31T00:25:08;100080.09;;;26.99;38.17
13478;BME280;12598;62.382;17.344;2023-07-31T00:26:10;100070.50;;;26.97;37.92
13478;BME280;12598;62.382;17.344;2023-07-31T00:27:12;100076.31;;;27.00;38.10
13478;BME280;12598;62.382;17.344;2023-07-31T00:28:13;100073.00;;;26.98;38.34
13478;BME280;12598;62.382;17.344;2023-07-31T00:29:15;100073.00;;;26.98;37.95
13478;BME280;12598;62.382;17.344;2023-07-31T00:30:17;100085.50;;;26.99;37.90
13478;BME280;12598;62.382;17.344;2023-07-31T00:31:19;100073.81;;;26.99;37.94
13478;BME280;12598;62.382;17.344;2023-07-31T00:32:22;100069.22;;;26.99;37.97
13478;BME280;12598;62.382;17.344;2023-07-31T00:33:24;100074.50;;;26.94;37.79
13478;BME280;12598;62.382;17.344;2023-07-31T00:34:26;100073.81;;;26.99;38.22
13478;BME280;12598;62.382;17.344;2023-07-31T00:35:28;100073.00;;;26.98;37.99
13478;BME280;12598;62.382;17.344;2023-07-31T00:36:30;100072.38;;;26.96;38.07
13478;BME280;12598;62.382;17.344;2023-07-31T00:37:32;100069.69;;;26.96;38.02
13478;BME280;12598;62.382;17.344;2023-07-31T00:38:34;100077.81;;;26.96;38.28
13478;BME280;12598;62.382;17.344;2023-07-31T00:39:36;100073.44;;;26.95;38.19
13478;BME280;12598;62.382;17.344;2023-07-31T00:40:37;100074.25;;;26.96;38.01
13478;BME280;12598;62.382;17.344;2023-07-31T00:41:39;100058.88;;;26.90;38.04
13478;BME280;12598;62.382;17.344;2023-07-31T00:42:41;100071.78;;;26.94;38.29
13478;BME280;12598;62.382;17.344;2023-07-31T00:43:43;100069.28;;;26.93;38.01
13478;BME280;12598;62.382;17.344;2023-07-31T00:44:45;100075.31;;;26.95;38.24
13478;BME280;12598;62.382;17.344;2023-07-31T00:45:47;100073.44;;;26.95;38.30
13478;BME280;12598;62.382;17.344;2023-07-31T00:46:49;100074.50;;;26.94;38.36
13478;BME280;12598;62.382;17.344;2023-07-31T00:47:51;100064.28;;;26.90;38.24
13478;BME280;12598;62.382;17.344;2023-07-31T00:48:53;100077.22;;;26.94;38.09
13478;BME280;12598;62.382;17.344;2023-07-31T00:49:55;100070.13;;;26.93;38.13
13478;BME280;12598;62.382;17.344;2023-07-31T00:50:57;100070.94;;;26.94;38.23
13478;BME280;12598;62.382;17.344;2023-07-31T00:51:59;100072.84;;;26.93;38.53
13478;BME280;12598;62.382;17.344;2023-07-31T00:53:01;100073.03;;;26.92;38.37
13478;BME280;12598;62.382;17.344;2023-07-31T00:54:03;100070.78;;;26.89;38.40
13478;BME280;12598;62.382;17.344;2023-07-31T00:55:05;100070.94;;;26.94;38.42
13478;BME280;12598;62.382;17.344;2023-07-31T00:56:08;100070.13;;;26.93;38.42
13478;BME280;12598;62.382;17.344;2023-07-31T00:57:10;100075.56;;;26.93;38.40
13478;BME280;12598;62.382;17.344;2023-07-31T00:58:12;100069.28;;;26.93;38.31
13478;BME280;12598;62.382;17.344;2023-07-31T00:59:14;100073.03;;;26.92;38.46
13478;BME280;12598;62.382;17.344;2023-07-31T01:00:16;100078.47;;;26.92;38.23
13478;BME280;12598;62.382;17.344;2023-07-31T01:01:18;100073.88;;;26.92;38.25
13478;BME280;12598;62.382;17.344;2023-07-31T01:02:21;100070.56;;;26.90;38.49
13478;BME280;12598;62.382;17.344;2023-07-31T01:03:23;100073.28;;;26.90;38.28
13478;BME280;12598;62.382;17.344;2023-07-31T01:04:25;100079.53;;;26.91;37.76
13478;BME280;12598;62.382;17.344;2023-07-31T01:07:21;100068.38;;;26.99;38.14
13478;BME280;12598;62.382;17.344;2023-07-31T01:09:49;100077.38;;;26.99;37.96
13478;BME280;12598;62.382;17.344;2023-07-31T01:11:14;100078.59;;;27.03;38.01
13478;BME280;12598;62.382;17.344;2023-07-31T01:12:20;100075.91;;;26.97;38.28
13478;BME280;12598;62.382;17.344;2023-07-31T01:13:22;100075.56;;;26.93;38.13
13478;BME280;12598;62.382;17.344;2023-07-31T01:14:25;100070.34;;;26.92;38.09
13478;BME280;12598;62.382;17.344;2023-07-31T01:15:27;100066.03;;;26.84;38.50
13478;BME280;12598;62.382;17.344;2023-07-31T01:16:29;100083.53;;;26.88;38.41
13478;BME280;12598;62.382;17.344;2023-07-31T01:17:31;100080.19;;;26.86;38.48
13478;BME280;12598;62.382;17.344;2023-07-31T01:18:33;100081.03;;;26.87;38.14
13478;BME280;12598;62.382;17.344;2023-07-31T01:19:35;100078.53;;;26.85;38.21
13478;BME280;12598;62.382;17.344;2023-07-31T01:20:37;100083.97;;;26.85;38.39
13478;BME280;12598;62.382;17.344;2023-07-31T01:26:19;100077.56;;;26.98;38.01
13478;BME280;12598;62.382;17.344;2023-07-31T01:27:24;100084.50;;;26.94;38.09
13478;BME280;12598;62.382;17.344;2023-07-31T01:28:43;100079.31;;;26.92;38.17
13478;BME280;12598;62.382;17.344;2023-07-31T01:30:15;100072.84;;;26.93;38.20
13478;BME280;12598;62.382;17.344;2023-07-31T01:31:22;100080.53;;;26.96;38.36
13478;BME280;12598;62.382;17.344;2023-07-31T01:32:28;100088.50;;;26.91;38.35
13478;BME280;12598;62.382;17.344;2023-07-31T01:33:31;100080.81;;;26.88;38.13
13478;BME280;12598;62.382;17.344;2023-07-31T01:34:33;100070.66;;;26.77;38.94
13478;BME280;12598;62.382;17.344;2023-07-31T01:35:37;100084.41;;;26.82;38.36
13478;BME280;12598;62.382;17.344;2023-07-31T01:36:39;100091.72;;;26.82;38.76
13478;BME280;12598;62.382;17.344;2023-07-31T01:37:42;100089.84;;;26.82;38.69
13478;BME280;12598;62.382;17.344;2023-07-31T01:38:43;100088.59;;;26.78;38.53
13478;BME280;12598;62.382;17.344;2023-07-31T01:39:45;100088.38;;;26.80;38.56
13478;BME280;12598;62.382;17.344;2023-07-31T01:40:51;100089.63;;;26.77;38.73
13478;BME280;12598;62.382;17.344;2023-07-31T01:41:54;100085.25;;;26.76;38.31
13478;BME280;12598;62.382;17.344;2023-07-31T01:42:56;100092.75;;;26.81;38.67
13478;BME280;12598;62.382;17.344;2023-07-31T01:43:58;100087.56;;;26.79;38.54
13478;BME280;12598;62.382;17.344;2023-07-31T01:45:00;100089.44;;;26.79;38.65
13478;BME280;12598;62.382;17.344;2023-07-31T01:46:02;100094.00;;;26.78;38.76
13478;BME280;12598;62.382;17.344;2023-07-31T01:47:04;100085.88;;;26.78;38.88
13478;BME280;12598;62.382;17.344;2023-07-31T01:48:07;100084.84;;;26.79;38.59
13478;BME280;12598;62.382;17.344;2023-07-31T01:49:09;100070.31;;;26.67;38.56
13478;BME280;12598;62.382;17.344;2023-07-31T01:50:11;100094.00;;;26.78;38.63
13478;BME280;12598;62.382;17.344;2023-07-31T01:51:13;100087.78;;;26.78;38.60
13478;BME280;12598;62.382;17.344;2023-07-31T01:52:15;100085.72;;;26.73;38.46
13478;BME280;12598;62.382;17.344;2023-07-31T01:53:17;100092.16;;;26.79;38.80
13478;BME280;12598;62.382;17.344;2023-07-31T01:54:22;100093.00;;;26.79;39.00
13478;BME280;12598;62.382;17.344;2023-07-31T01:55:24;100091.38;;;26.72;38.81
13478;BME280;12598;62.382;17.344;2023-07-31T01:56:25;100103.00;;;26.79;38.88
13478;BME280;12598;62.382;17.344;2023-07-31T01:57:27;100103.19;;;26.77;38.84
13478;BME280;12598;62.382;17.344;2023-07-31T01:58:29;100102.38;;;26.77;38.79
13478;BME280;12598;62.382;17.344;2023-07-31T01:59:31;100105.91;;;26.77;39.03
13478;BME280;12598;62.382;17.344;2023-07-31T02:00:33;100100.72;;;26.76;38.67
13478;BME280;12598;62.382;17.344;2023-07-31T02:01:35;100104.25;;;26.76;38.79
13478;BME280;12598;62.382;17.344;2023-07-31T02:02:37;100101.53;;;26.76;38.72
13478;BME280;12598;62.382;17.344;2023-07-31T02:03:39;100095.94;;;26.71;38.88
13478;BME280;12598;62.382;17.344;2023-07-31T02:04:41;100101.53;;;26.76;39.04
13478;BME280;12598;62.382;17.344;2023-07-31T02:05:45;100100.72;;;26.76;38.89
13478;BME280;12598;62.382;17.344;2023-07-31T02:06:47;100089.47;;;26.72;38.94
13478;BME280;12598;62.382;17.344;2023-07-31T02:07:49;100100.50;;;26.77;38.77
13478;BME280;12598;62.382;17.344;2023-07-31T02:08:51;100091.53;;;26.77;38.75
13478;BME280;12598;62.382;17.344;2023-07-31T02:09:53;100096.97;;;26.77;38.91
13478;BME280;12598;62.382;17.344;2023-07-31T02:10:56;100083.22;;;26.72;38.80
13478;BME280;12598;62.382;17.344;2023-07-31T02:11:57;100096.34;;;26.75;38.67
13478;BME280;12598;62.382;17.344;2023-07-31T02:12:59;100099.06;;;26.75;38.87
13478;BME280;12598;62.382;17.344;2023-07-31T02:14:02;100087.19;;;26.69;38.74
13478;BME280;12598;62.382;17.344;2023-07-31T02:15:04;100094.69;;;26.74;38.86
13478;BME280;12598;62.382;17.344;2023-07-31T02:16:06;100094.44;;;26.75;38.78
13478;BME280;12598;62.382;17.344;2023-07-31T02:17:08;100093.25;;;26.71;39.14
13478;BME280;12598;62.382;17.344;2023-07-31T02:18:10;100096.34;;;26.75;38.79
13478;BME280;12598;62.382;17.344;2023-07-31T02:19:12;100094.69;;;26.74;38.96
13478;BME280;12598;62.382;17.344;2023-07-31T02:20:14;100093.84;;;26.73;39.10
13478;BME280;12598;62.382;17.344;2023-07-31T02:21:16;100093.63;;;26.75;39.05
13478;BME280;12598;62.382;17.344;2023-07-31T02:22:17;100097.41;;;26.74;38.61
13478;BME280;12598;62.382;17.344;2023-07-31T02:23:20;100098.22;;;26.74;38.77
13478;BME280;12598;62.382;17.344;2023-07-31T02:24:22;100096.56;;;26.73;38.99
13478;BME280;12598;62.382;17.344;2023-07-31T02:25:24;100096.56;;;26.73;38.99
13478;BME280;12598;62.382;17.344;2023-07-31T02:26:26;100096.56;;;26.73;38.98
13478;BME280;12598;62.382;17.344;2023-07-31T02:27:28;100084.56;;;26.63;38.92
13478;BME280;12598;62.382;17.344;2023-07-31T02:28:30;100098.66;;;26.71;39.14
13478;BME280;12598;62.382;17.344;2023-07-31T02:29:32;100100.13;;;26.74;39.04
13478;BME280;12598;62.382;17.344;2023-07-31T02:30:34;100099.50;;;26.72;38.87
13478;BME280;12598;62.382;17.344;2023-07-31T02:31:36;100100.31;;;26.72;39.06
13478;BME280;12598;62.382;17.344;2023-07-31T02:32:39;100108.47;;;26.72;38.78
13478;BME280;12598;62.382;17.344;2023-07-31T02:33:41;100103.03;;;26.72;39.01
13478;BME280;12598;62.382;17.344;2023-07-31T02:34:44;100112.84;;;26.73;39.04
13478;BME280;12598;62.382;17.344;2023-07-31T02:35:46;100107.41;;;26.73;38.96
13478;BME280;12598;62.382;17.344;2023-07-31T02:36:48;100103.03;;;26.72;38.74
13478;BME280;12598;62.382;17.344;2023-07-31T02:37:50;100108.47;;;26.72;38.98
13478;BME280;12598;62.382;17.344;2023-07-31T02:38:53;100111.16;;;26.72;38.91
13478;BME280;12598;62.382;17.344;2023-07-31T02:39:55;100111.16;;;26.72;38.78
13478;BME280;12598;62.382;17.344;2023-07-31T02:40:57;100110.34;;;26.72;39.08
13478;BME280;12598;62.382;17.344;2023-07-31T02:41:59;100104.09;;;26.71;38.65
13478;BME280;12598;62.382;17.344;2023-07-31T02:43:02;100101.19;;;26.66;38.99
13478;BME280;12598;62.382;17.344;2023-07-31T02:44:04;100110.56;;;26.70;39.00
13478;BME280;12598;62.382;17.344;2023-07-31T02:45:06;100112.47;;;26.70;38.94
13478;BME280;12598;62.382;17.344;2023-07-31T02:46:09;100103.47;;;26.69;38.89
13478;BME280;12598;62.382;17.344;2023-07-31T02:47:11;100114.94;;;26.71;38.94
13478;BME280;12598;62.382;17.344;2023-07-31T02:48:13;100107.25;;;26.68;39.15
13478;BME280;12598;62.382;17.344;2023-07-31T02:49:15;100107.03;;;26.70;38.87
13478;BME280;12598;62.382;17.344;2023-07-31T02:50:17;100109.75;;;26.70;38.99
13478;BME280;12598;62.382;17.344;2023-07-31T02:51:19;100120.81;;;26.68;38.81
13478;BME280;12598;62.382;17.344;2023-07-31T02:52:23;100117.03;;;26.69;38.71
13478;BME280;12598;62.382;17.344;2023-07-31T02:53:24;100115.38;;;26.68;38.84
13478;BME280;12598;62.382;17.344;2023-07-31T02:54:26;100117.03;;;26.69;38.80
13478;BME280;12598;62.382;17.344;2023-07-31T02:55:28;100110.78;;;26.69;38.59
13478;BME280;12598;62.382;17.344;2023-07-31T02:56:30;100114.56;;;26.68;38.88
13478;BME280;12598;62.382;17.344;2023-07-31T02:57:33;100109.94;;;26.68;38.89
13478;BME280;12598;62.382;17.344;2023-07-31T02:58:35;100111.00;;;26.67;38.85
13478;BME280;12598;62.382;17.344;2023-07-31T02:59:37;100102.06;;;26.67;39.02
13478;BME280;12598;62.382;17.344;2023-07-31T03:00:43;100092.91;;;26.61;38.98
13478;BME280;12598;62.382;17.344;2023-07-31T03:01:45;100103.72;;;26.68;39.22
13478;BME280;12598;62.382;17.344;2023-07-31T03:02:47;100102.88;;;26.67;39.19
13478;BME280;12598;62.382;17.344;2023-07-31T03:03:49;100101.19;;;26.66;38.92
13478;BME280;12598;62.382;17.344;2023-07-31T03:04:51;100105.56;;;26.67;39.13
13478;BME280;12598;62.382;17.344;2023-07-31T03:05:53;100103.91;;;26.66;39.07
13478;BME280;12598;62.382;17.344;2023-07-31T03:06:55;100109.34;;;26.66;39.07
13478;BME280;12598;62.382;17.344;2023-07-31T03:07:56;100107.69;;;26.65;38.97
13478;BME280;12598;62.382;17.344;2023-07-31T03:08:58;100109.34;;;26.66;39.16
13478;BME280;12598;62.382;17.344;2023-07-31T03:10:02;100109.34;;;26.66;39.28
13478;BME280;12598;62.382;17.344;2023-07-31T03:11:04;100101.19;;;26.66;39.07
13478;BME280;12598;62.382;17.344;2023-07-31T03:12:06;100098.72;;;26.65;39.12
13478;BME280;12598;62.382;17.344;2023-07-31T03:13:08;100104.97;;;26.65;39.01
13478;BME280;12598;62.382;17.344;2023-07-31T03:14:10;100102.25;;;26.65;39.12
13478;BME280;12598;62.382;17.344;2023-07-31T03:15:12;100103.91;;;26.66;39.09
13478;BME280;12598;62.382;17.344;2023-07-31T03:16:14;100104.16;;;26.65;39.05
13478;BME280;12598;62.382;17.344;2023-07-31T03:17:16;100104.16;;;26.65;39.25
13478;BME280;12598;62.382;17.344;2023-07-31T03:18:18;100113.09;;;26.65;39.17
13478;BME280;12598;62.382;17.344;2023-07-31T03:19:20;100108.72;;;26.64;38.97
13478;BME280;12598;62.382;17.344;2023-07-31T03:20:22;100100.84;;;26.56;39.14
13478;BME280;12598;62.382;17.344;2023-07-31T03:21:24;100115.00;;;26.65;39.20
13478;BME280;12598;62.382;17.344;2023-07-31T03:22:26;100111.28;;;26.59;39.37
13478;BME280;12598;62.382;17.344;2023-07-31T03:23:28;100116.88;;;26.64;39.38
13478;BME280;12598;62.382;17.344;2023-07-31T03:24:30;100113.94;;;26.66;39.16
13478;BME280;12598;62.382;17.344;2023-07-31T03:25:31;100116.06;;;26.64;39.00
13478;BME280;12598;62.382;17.344;2023-07-31T03:26:33;100113.34;;;26.64;39.19
13478;BME280;12598;62.382;17.344;2023-07-31T03:27:36;100116.06;;;26.64;39.45
13478;BME280;12598;62.382;17.344;2023-07-31T03:28:37;100102.31;;;26.59;39.29
13478;BME280;12598;62.382;17.344;2023-07-31T03:29:39;100113.34;;;26.64;39.15
13478;BME280;12598;62.382;17.344;2023-07-31T03:30:41;100114.16;;;26.64;39.11
13478;BME280;12598;62.382;17.344;2023-07-31T03:31:43;100112.72;;;26.62;39.10
13478;BME280;12598;62.382;17.344;2023-07-31T03:32:45;100116.06;;;26.64;39.52
13478;BME280;12598;62.382;17.344;2023-07-31T03:33:47;100115.19;;;26.63;39.57
13478;BME280;12598;62.382;17.344;2023-07-31T03:34:49;100114.38;;;26.63;39.29
13478;BME280;12598;62.382;17.344;2023-07-31T03:35:51;100112.50;;;26.63;39.25
13478;BME280;12598;62.382;17.344;2023-07-31T03:36:53;100117.91;;;26.63;39.24
13478;BME280;12598;62.382;17.344;2023-07-31T03:37:56;100115.19;;;26.63;39.34
13478;BME280;12598;62.382;17.344;2023-07-31T03:38:58;100116.88;;;26.64;39.44
13478;BME280;12598;62.382;17.344;2023-07-31T03:40:00;100120.63;;;26.63;39.25
13478;BME280;12598;62.382;17.344;2023-07-31T03:41:05;100100.84;;;26.56;39.49
13478;BME280;12598;62.382;17.344;2023-07-31T03:42:08;100114.16;;;26.64;39.32
13478;BME280;12598;62.382;17.344;2023-07-31T03:43:10;100108.13;;;26.62;39.45
13478;BME280;12598;62.382;17.344;2023-07-31T03:44:13;100110.63;;;26.64;39.33
13478;BME280;12598;62.382;17.344;2023-07-31T03:45:15;100109.78;;;26.63;39.31
13478;BME280;12598;62.382;17.344;2023-07-31T03:46:17;100115.19;;;26.63;39.44
13478;BME280;12598;62.382;17.344;2023-07-31T03:47:19;100109.78;;;26.63;39.53
13478;BME280;12598;62.382;17.344;2023-07-31T03:48:21;100111.69;;;26.63;39.33
13478;BME280;12598;62.382;17.344;2023-07-31T03:49:23;100107.06;;;26.63;39.58
13478;BME280;12598;62.382;17.344;2023-07-31T03:50:25;100104.59;;;26.62;39.40
13478;BME280;12598;62.382;17.344;2023-07-31T03:51:27;100109.16;;;26.61;39.20
13478;BME280;12598;62.382;17.344;2023-07-31T03:52:29;100108.13;;;26.62;39.33
13478;BME280;12598;62.382;17.344;2023-07-31T03:53:31;100113.53;;;26.62;39.56
13478;BME280;12598;62.382;17.344;2023-07-31T03:54:33;100112.72;;;26.62;39.14
13478;BME280;12598;62.382;17.344;2023-07-31T03:55:35;100110.00;;;26.62;39.42
13478;BME280;12598;62.382;17.344;2023-07-31T03:56:37;100112.94;;;26.60;39.45
13478;BME280;12598;62.382;17.344;2023-07-31T03:57:40;100110.84;;;26.62;39.45
13478;BME280;12598;62.382;17.344;2023-07-31T03:58:42;100113.53;;;26.62;39.43
13478;BME280;12598;62.382;17.344;2023-07-31T03:59:44;100115.19;;;26.63;39.94
13478;BME280;12598;62.382;17.344;2023-07-31T04:00:46;100112.13;;;26.60;39.67
13478;BME280;12598;62.382;17.344;2023-07-31T04:01:48;100117.91;;;26.63;39.49
13478;BME280;12598;62.382;17.344;2023-07-31T04:02:50;100108.97;;;26.63;39.56
13478;BME280;12598;62.382;17.344;2023-07-31T04:03:52;100112.50;;;26.63;39.37
13478;BME280;12598;62.382;17.344;2023-07-31T04:04:54;100113.53;;;26.62;39.52
13478;BME280;12598;62.382;17.344;2023-07-31T04:05:56;100117.09;;;26.63;39.71
13478;BME280;12598;62.382;17.344;2023-07-31T04:06:58;100117.31;;;26.61;39.52
13478;BME280;12598;62.382;17.344;2023-07-31T04:08:00;100111.69;;;26.63;39.48
13478;BME280;12598;62.382;17.344;2023-07-31T04:09:02;100114.59;;;26.61;39.75
13478;BME280;12598;62.382;17.344;2023-07-31T04:10:04;100122.53;;;26.63;39.83
13478;BME280;12598;62.382;17.344;2023-07-31T04:11:06;100118.97;;;26.62;39.67
13478;BME280;12598;62.382;17.344;2023-07-31T04:12:08;100120.88;;;26.62;39.57
13478;BME280;12598;62.382;17.344;2023-07-31T04:13:10;100117.09;;;26.63;39.67
13478;BME280;12598;62.382;17.344;2023-07-31T04:14:12;100114.59;;;26.61;39.41
13478;BME280;12598;62.382;17.344;2023-07-31T04:15:14;100109.78;;;26.63;39.64
13478;BME280;12598;62.382;17.344;2023-07-31T04:16:16;100111.69;;;26.63;39.42
13478;BME280;12598;62.382;17.344;2023-07-31T04:17:18;100114.59;;;26.61;39.26
13478;BME280;12598;62.382;17.344;2023-07-31T04:18:20;100115.19;;;26.63;39.47
13478;BME280;12598;62.382;17.344;2023-07-31T04:19:22;100109.78;;;26.63;39.39
13478;BME280;12598;62.382;17.344;2023-07-31T04:20:23;100117.91;;;26.63;39.57
13478;BME280;12598;62.382;17.344;2023-07-31T04:21:25;100108.13;;;26.62;38.98
13478;BME280;12598;62.382;17.344;2023-07-31T04:22:27;100117.09;;;26.63;39.34
13478;BME280;12598;62.382;17.344;2023-07-31T04:23:29;100110.00;;;26.62;39.37
13478;BME280;12598;62.382;17.344;2023-07-31T04:24:31;100119.81;;;26.63;39.74
13478;BME280;12598;62.382;17.344;2023-07-31T04:25:33;100114.59;;;26.61;39.35
13478;BME280;12598;62.382;17.344;2023-07-31T04:26:36;100121.69;;;26.62;39.37
13478;BME280;12598;62.382;17.344;2023-07-31T04:27:39;100117.13;;;26.56;39.64
13478;BME280;12598;62.382;17.344;2023-07-31T04:28:41;100120.03;;;26.61;39.35
13478;BME280;12598;62.382;17.344;2023-07-31T04:29:43;100131.47;;;26.63;39.40
13478;BME280;12598;62.382;17.344;2023-07-31T04:30:47;100113.78;;;26.61;39.35
13478;BME280;12598;62.382;17.344;2023-07-31T04:31:51;100123.34;;;26.63;39.39
13478;BME280;12598;62.382;17.344;2023-07-31T04:32:53;100127.09;;;26.62;39.58
13478;BME280;12598;62.382;17.344;2023-07-31T04:33:55;100105.06;;;26.52;39.28
13478;BME280;12598;62.382;17.344;2023-07-31T04:34:57;100123.34;;;26.63;39.46
13478;BME280;12598;62.382;17.344;2023-07-31T04:35:59;100126.28;;;26.62;39.40
13478;BME280;12598;62.382;17.344;2023-07-31T04:37:01;100127.09;;;26.62;39.19
13478;BME280;12598;62.382;17.344;2023-07-31T04:38:03;100114.59;;;26.61;39.40
13478;BME280;12598;62.382;17.344;2023-07-31T04:39:05;100111.88;;;26.61;39.38
13478;BME280;12598;62.382;17.344;2023-07-31T04:40:07;100112.31;;;26.58;39.35
13478;BME280;12598;62.382;17.344;2023-07-31T04:41:09;100113.53;;;26.62;39.42
13478;BME280;12598;62.382;17.344;2023-07-31T04:42:11;100112.72;;;26.62;39.57
13478;BME280;12598;62.382;17.344;2023-07-31T04:43:13;100107.75;;;26.59;39.32
13478;BME280;12598;62.382;17.344;2023-07-31T04:44:15;100113.78;;;26.61;39.43
13478;BME280;12598;62.382;17.344;2023-07-31T04:45:17;100108.34;;;26.61;39.39
13478;BME280;12598;62.382;17.344;2023-07-31T04:46:19;100111.88;;;26.61;39.41
13478;BME280;12598;62.382;17.344;2023-07-31T04:47:21;100109.16;;;26.61;39.43
13478;BME280;12598;62.382;17.344;2023-07-31T04:48:23;100113.78;;;26.61;39.35
13478;BME280;12598;62.382;17.344;2023-07-31T04:49:25;100110.00;;;26.62;39.51
13478;BME280;12598;62.382;17.344;2023-07-31T04:50:27;100116.25;;;26.62;39.77
13478;BME280;12598;62.382;17.344;2023-07-31T04:51:29;100113.16;;;26.59;39.41
13478;BME280;12598;62.382;17.344;2023-07-31T04:52:31;100112.13;;;26.60;39.49
13478;BME280;12598;62.382;17.344;2023-07-31T04:53:33;100112.94;;;26.60;39.68
13478;BME280;12598;62.382;17.344;2023-07-31T04:54:35;100118.34;;;26.60;39.96
13478;BME280;12598;62.382;17.344;2023-07-31T04:55:37;100110.22;;;26.60;39.66
13478;BME280;12598;62.382;17.344;2023-07-31T04:56:39;100113.78;;;26.61;39.50
13478;BME280;12598;62.382;17.344;2023-07-31T04:57:41;100117.31;;;26.61;39.87
13478;BME280;12598;62.382;17.344;2023-07-31T04:58:43;100117.31;;;26.61;39.84
13478;BME280;12598;62.382;17.344;2023-07-31T04:59:45;100112.13;;;26.60;39.89
13478;BME280;12598;62.382;17.344;2023-07-31T05:00:49;100120.03;;;26.61;39.52
13478;BME280;12598;62.382;17.344;2023-07-31T05:01:51;100120.03;;;26.61;39.59
13478;BME280;12598;62.382;17.344;2023-07-31T05:02:53;100120.03;;;26.61;39.71
13478;BME280;12598;62.382;17.344;2023-07-31T05:03:55;100123.78;;;26.60;39.84
13478;BME280;12598;62.382;17.344;2023-07-31T05:04:57;100138.81;;;26.63;39.75
13478;BME280;12598;62.382;17.344;2023-07-31T05:05:59;100134.19;;;26.63;39.56
13478;BME280;12598;62.382;17.344;2023-07-31T05:07:01;100130.66;;;26.63;39.43
13478;BME280;12598;62.382;17.344;2023-07-31T05:08:03;100129.19;;;26.60;39.57
13478;BME280;12598;62.382;17.344;2023-07-31T05:09:05;100132.97;;;26.59;39.29
13478;BME280;12598;62.382;17.344;2023-07-31T05:10:07;100138.34;;;26.66;39.48
13478;BME280;12598;62.382;17.344;2023-07-31T05:11:09;100123.78;;;26.60;39.32
13478;BME280;12598;62.382;17.344;2023-07-31T05:12:11;100123.34;;;26.63;39.64
13478;BME280;12598;62.382;17.344;2023-07-31T05:13:13;100138.72;;;26.69;39.89
13478;BME280;12598;62.382;17.344;2023-07-31T05:14:15;100136.63;;;26.71;39.55
13478;BME280;12598;62.382;17.344;2023-07-31T05:15:24;100137.25;;;26.73;39.40
13478;BME280;12598;62.382;17.344;2023-07-31T05:16:26;100139.53;;;26.76;39.48
13478;BME280;12598;62.382;17.344;2023-07-31T05:17:28;100129.72;;;26.75;39.16
13478;BME280;12598;62.382;17.344;2023-07-31T05:18:30;100129.50;;;26.77;39.26
13478;BME280;12598;62.382;17.344;2023-07-31T05:19:31;100133.84;;;26.84;39.32
13478;BME280;12598;62.382;17.344;2023-07-31T05:20:33;100127.81;;;26.82;39.11
13478;BME280;12598;62.382;17.344;2023-07-31T05:21:35;100141.94;;;26.91;39.04
13478;BME280;12598;62.382;17.344;2023-07-31T05:22:37;100138.16;;;26.92;38.72
13478;BME280;12598;62.382;17.344;2023-07-31T05:23:39;100144.00;;;26.95;38.84
13478;BME280;12598;62.382;17.344;2023-07-31T05:24:41;100145.22;;;26.99;38.65
13478;BME280;12598;62.382;17.344;2023-07-31T05:25:43;100142.28;;;27.01;38.78
13478;BME280;12598;62.382;17.344;2023-07-31T05:26:44;100133.91;;;27.02;38.86
13478;BME280;12598;62.382;17.344;2023-07-31T05:27:46;100144.75;;;27.09;38.57
13478;BME280;12598;62.382;17.344;2023-07-31T05:28:48;100131.59;;;27.06;38.34
13478;BME280;12598;62.382;17.344;2023-07-31T05:29:50;100143.03;;;27.14;38.48